Time;durP1;ratioP1;P1;durP2;ratioP2;P2;SDS_P1;SDS_P2;PMS_P1;PMS_P2;Temp;Humidity;BMP_temperature;BMP_pressure;BME280_temperature;BME280_humidity;BME280_pressure;Samples;Min_cycle;Max_cycle;Signal;HPM_P1;HPM_P2
2021/06/19 00:02:26;;;;;;;11.65;5.05;;;28.70;48.70;;;;;;6257950;28;20022;-87
2021/06/19 00:05:28;;;;;;;13.63;5.88;;;28.70;48.90;;;;;;6233262;28;20029;-87
2021/06/19 00:08:29;;;;;;;17.02;5.05;;;28.60;48.90;;;;;;6224671;28;20087;-87
2021/06/19 00:11:31;;;;;;;10.95;4.70;;;28.60;48.90;;;;;;6205865;28;20088;-87
2021/06/19 00:14:33;;;;;;;13.25;5.07;;;28.60;49.10;;;;;;6223293;28;20308;-87
2021/06/19 00:17:35;;;;;;;13.93;5.35;;;28.50;49.40;;;;;;6224590;28;20121;-87
2021/06/19 00:20:36;;;;;;;14.82;5.00;;;28.50;49.50;;;;;;6198659;28;20056;-88
2021/06/19 00:23:38;;;;;;;18.75;5.22;;;28.40;49.60;;;;;;6210193;28;20045;-89
2021/06/19 00:26:39;;;;;;;14.27;5.10;;;28.40;49.70;;;;;;6224484;28;20029;-88
2021/06/19 00:29:40;;;;;;;16.25;5.00;;;28.40;49.80;;;;;;6231158;28;20124;-88
2021/06/19 00:32:43;;;;;;;17.02;5.35;;;28.40;49.80;;;;;;6223439;28;20059;-88
2021/06/19 00:35:44;;;;;;;10.52;4.53;;;28.40;50.00;;;;;;6208035;28;20454;-89
2021/06/19 00:38:45;;;;;;;12.50;4.72;;;28.30;50.00;;;;;;6206512;28;20030;-90
2021/06/19 00:41:46;;;;;;;18.05;5.13;;;28.20;50.10;;;;;;6223387;28;20040;-89
2021/06/19 00:44:48;;;;;;;27.08;5.88;;;28.20;50.30;;;;;;6223476;28;20108;-89
2021/06/19 00:47:49;;;;;;;14.52;4.40;;;28.20;50.40;;;;;;6238342;28;20064;-88
2021/06/19 00:50:50;;;;;;;12.10;4.80;;;28.20;50.40;;;;;;6223492;28;20044;-89
2021/06/19 00:53:52;;;;;;;10.77;5.18;;;28.10;50.40;;;;;;6224072;28;20022;-88
2021/06/19 00:56:53;;;;;;;18.73;4.47;;;28.10;50.50;;;;;;6216267;28;20333;-89
2021/06/19 00:59:58;;;;;;;13.10;4.90;;;28.20;50.50;;;;;;6206663;28;20362;-88
2021/06/19 01:02:59;;;;;;;17.90;5.20;;;28.20;50.40;;;;;;6195712;28;20034;-88
2021/06/19 01:06:00;;;;;;;12.13;4.63;;;28.20;50.80;;;;;;6182198;28;20041;-88
2021/06/19 01:09:04;;;;;;;13.48;4.50;;;28.20;50.10;;;;;;6182214;28;20466;-89
2021/06/19 01:12:06;;;;;;;9.20;4.65;;;28.20;50.20;;;;;;6182383;28;20030;-88
2021/06/19 01:15:08;;;;;;;10.15;4.07;;;28.20;50.30;;;;;;6184583;28;20395;-89
2021/06/19 01:18:11;;;;;;;17.65;4.95;;;28.20;50.40;;;;;;6186777;28;20045;-89
2021/06/19 01:21:18;;;;;;;11.05;4.40;;;28.20;50.30;;;;;;6211010;28;20026;-90
2021/06/19 01:24:24;;;;;;;17.73;4.70;;;28.20;50.30;;;;;;6223379;28;20080;-89
2021/06/19 01:27:59;;;;;;;16.40;4.60;;;28.10;50.20;;;;;;6224492;28;20032;-90
2021/06/19 01:31:00;;;;;;;10.35;3.35;;;28.10;50.30;;;;;;6233704;28;20048;-92
2021/06/19 01:34:03;;;;;;;13.82;4.25;;;28.20;50.00;;;;;;6234859;28;20072;-89
2021/06/19 01:37:04;;;;;;;7.00;3.50;;;28.10;49.80;;;;;;6238809;28;20047;-90
2021/06/19 01:40:12;;;;;;;11.88;4.28;;;28.20;49.90;;;;;;6238550;28;20036;-89
2021/06/19 01:43:13;;;;;;;12.60;3.63;;;28.00;49.80;;;;;;6254477;28;20082;-89
2021/06/19 01:46:15;;;;;;;12.15;4.47;;;27.90;49.80;;;;;;6257513;28;20090;-89
2021/06/19 01:49:16;;;;;;;10.48;3.70;;;27.90;49.90;;;;;;6259013;28;20044;-89
2021/06/19 01:52:19;;;;;;;11.88;4.15;;;27.80;49.80;;;;;;6258054;28;20482;-89
2021/06/19 01:55:22;;;;;;;7.53;3.75;;;27.80;49.90;;;;;;6256782;28;20315;-89
2021/06/19 01:58:24;;;;;;;10.98;3.60;;;27.70;50.00;;;;;;6277000;28;20350;-89
2021/06/19 02:01:25;;;;;;;9.43;3.55;;;27.70;50.10;;;;;;6266079;28;20029;-90
2021/06/19 02:04:27;;;;;;;13.80;4.85;;;27.60;50.20;;;;;;6256408;28;20021;-90
2021/06/19 02:07:28;;;;;;;6.78;3.40;;;27.50;50.30;;;;;;6239878;28;20520;-90
2021/06/19 02:10:32;;;;;;;11.07;3.80;;;27.50;50.40;;;;;;6242476;28;20044;-90
2021/06/19 02:13:35;;;;;;;11.35;3.60;;;27.50;50.50;;;;;;6231306;28;20046;-90
2021/06/19 02:20:42;;;;;;;9.48;4.05;;;27.40;50.60;;;;;;6236348;28;20028;-89
2021/06/19 02:23:43;;;;;;;11.07;3.88;;;27.40;50.60;;;;;;6219898;28;20026;-89
2021/06/19 02:26:44;;;;;;;9.88;3.78;;;27.50;50.50;;;;;;6226007;28;20037;-90
2021/06/19 02:29:45;;;;;;;8.02;3.80;;;27.50;50.40;;;;;;6251266;28;20037;-90
2021/06/19 02:32:46;;;;;;;9.13;3.95;;;27.60;50.40;;;;;;6258386;28;20327;-89
2021/06/19 02:36:18;;;;;;;13.50;3.78;;;27.60;50.40;;;;;;6259035;28;20430;-89
2021/06/19 02:43:43;;;;;;;;;;;27.40;50.80;;;;;;6243897;28;20339;-90
2021/06/19 02:46:45;;;;;;;12.68;3.67;;;27.40;50.80;;;;;;6227976;28;19909;-89
2021/06/19 02:49:46;;;;;;;10.25;4.10;;;27.30;50.70;;;;;;6226454;28;20044;-90
2021/06/19 02:52:47;;;;;;;10.15;4.05;;;27.30;50.90;;;;;;6227399;28;20355;-89
2021/06/19 02:55:48;;;;;;;11.88;4.25;;;27.30;51.20;;;;;;6236595;28;20124;-89
2021/06/19 02:58:52;;;;;;;8.52;4.22;;;27.20;51.30;;;;;;6239135;28;20029;-90
2021/06/19 03:01:53;;;;;;;7.30;3.72;;;27.20;51.60;;;;;;6215576;28;20041;-89
2021/06/19 03:04:55;;;;;;;15.80;4.30;;;27.10;51.60;;;;;;6226570;28;20037;-89
2021/06/19 03:07:56;;;;;;;13.40;3.97;;;27.20;51.60;;;;;;6251046;28;20033;-89
2021/06/19 03:10:58;;;;;;;15.00;4.18;;;27.20;51.60;;;;;;6254672;28;20033;-90
2021/06/19 03:13:59;;;;;;;13.48;3.97;;;27.20;51.40;;;;;;6246445;28;20037;-90
2021/06/19 03:17:00;;;;;;;12.52;4.75;;;27.20;51.40;;;;;;6236543;28;20033;-90
2021/06/19 03:20:03;;;;;;;12.32;4.20;;;27.20;51.40;;;;;;6234574;28;20037;-90
2021/06/19 03:23:06;;;;;;;8.13;4.00;;;27.20;51.40;;;;;;6239660;28;20037;-90
2021/06/19 03:26:07;;;;;;;9.32;4.00;;;27.10;51.50;;;;;;6258860;28;20127;-91
2021/06/19 03:29:08;;;;;;;9.80;3.85;;;27.20;51.50;;;;;;6249599;28;20053;-89
2021/06/19 03:32:10;;;;;;;11.13;4.10;;;27.20;51.50;;;;;;6247765;28;20048;-89
2021/06/19 03:35:11;;;;;;;10.43;4.40;;;27.20;51.70;;;;;;6209131;28;20347;-89
2021/06/19 03:38:12;;;;;;;13.73;4.25;;;27.20;51.50;;;;;;6214489;28;20021;-89
2021/06/19 03:41:28;;;;;;;10.13;4.03;;;27.20;51.50;;;;;;6208432;28;20032;-88
2021/06/19 03:44:32;;;;;;;6.65;4.07;;;27.20;51.60;;;;;;6221314;28;20054;-90
2021/06/19 03:47:38;;;;;;;13.32;4.50;;;27.20;51.60;;;;;;6212969;28;20084;-89
2021/06/19 03:50:39;;;;;;;11.80;4.50;;;27.30;51.70;;;;;;6212566;28;20034;-89
2021/06/19 03:53:40;;;;;;;12.73;4.47;;;27.20;51.60;;;;;;6210509;28;20062;-89
2021/06/19 03:56:42;;;;;;;6.43;4.05;;;27.10;51.80;;;;;;6208829;28;20025;-89
2021/06/19 03:59:47;;;;;;;17.67;4.53;;;27.00;52.00;;;;;;6193858;28;20348;-89
2021/06/19 04:02:52;;;;;;;12.35;4.10;;;27.00;52.20;;;;;;6184816;28;20367;-91
2021/06/19 04:05:53;;;;;;;10.75;4.63;;;26.90;52.30;;;;;;6203708;28;20117;-90
2021/06/19 04:09:46;;;;;;;9.20;4.43;;;26.90;52.50;;;;;;6209546;28;20115;-90
2021/06/19 04:12:48;;;;;;;9.73;3.95;;;26.80;52.70;;;;;;6201948;28;20320;-89
2021/06/19 04:15:50;;;;;;;14.45;4.47;;;26.80;52.60;;;;;;6205179;28;20022;-90
2021/06/19 04:18:52;;;;;;;9.60;3.72;;;26.80;52.70;;;;;;6202014;28;20042;-89
2021/06/19 04:21:56;;;;;;;8.25;3.67;;;26.80;52.70;;;;;;6215771;28;20039;-91
2021/06/19 04:25:00;;;;;;;11.98;4.55;;;26.90;52.60;;;;;;6218665;28;20076;-89
2021/06/19 04:28:02;;;;;;;15.68;3.72;;;27.00;52.70;;;;;;6200191;28;20116;-89
2021/06/19 04:31:04;;;;;;;9.68;4.38;;;27.00;52.50;;;;;;6220131;28;20126;-90
2021/06/19 04:34:09;;;;;;;13.82;4.20;;;27.00;52.40;;;;;;6210350;28;20069;-89
2021/06/19 04:37:14;;;;;;;12.15;4.20;;;27.00;52.40;;;;;;6163353;28;20044;-91
2021/06/19 04:43:27;;;;;;;12.77;4.28;;;27.00;52.40;;;;;;6212380;28;20041;-90
2021/06/19 04:46:39;;;;;;;14.27;4.22;;;27.00;52.30;;;;;;6197964;28;20061;-89
2021/06/19 04:49:43;;;;;;;9.65;4.07;;;27.10;52.50;;;;;;6188860;28;20038;-89
2021/06/19 04:52:45;;;;;;;12.55;4.30;;;27.10;52.40;;;;;;6179873;28;20021;-89
2021/06/19 04:55:50;;;;;;;9.95;3.63;;;27.00;52.20;;;;;;6200843;28;20075;-90
2021/06/19 04:58:54;;;;;;;9.90;3.90;;;27.20;52.30;;;;;;6237273;28;20040;-89
2021/06/19 05:01:55;;;;;;;13.80;4.53;;;27.20;52.10;;;;;;6253587;28;20049;-89
2021/06/19 05:04:56;;;;;;;16.23;5.35;;;27.30;52.00;;;;;;6220312;28;20029;-89
2021/06/19 05:07:58;;;;;;;9.63;3.92;;;27.30;52.00;;;;;;6221324;28;20411;-89
2021/06/19 05:11:02;;;;;;;10.13;4.05;;;27.30;52.60;;;;;;6221395;28;20350;-90
2021/06/19 05:14:05;;;;;;;13.68;4.65;;;27.20;52.20;;;;;;6221869;28;20047;-89
2021/06/19 05:17:06;;;;;;;14.52;4.75;;;27.20;52.30;;;;;;6220173;28;20353;-88
2021/06/19 05:20:12;;;;;;;8.70;4.85;;;27.20;52.20;;;;;;6221486;28;20125;-89
2021/06/19 05:23:17;;;;;;;11.68;4.53;;;27.30;52.30;;;;;;6241737;28;20029;-89
2021/06/19 05:26:21;;;;;;;16.23;4.60;;;27.30;52.30;;;;;;6239167;28;20118;-89
2021/06/19 05:29:22;;;;;;;12.88;4.50;;;27.30;52.30;;;;;;6256710;28;20029;-89
2021/06/19 05:32:25;;;;;;;11.95;4.78;;;27.40;52.30;;;;;;6228230;28;20037;-89
2021/06/19 05:35:26;;;;;;;13.38;4.28;;;27.40;52.20;;;;;;6210710;28;20033;-89
2021/06/19 05:38:29;;;;;;;14.23;4.45;;;27.40;52.10;;;;;;6202163;28;20038;-89
2021/06/19 05:41:35;;;;;;;11.88;4.22;;;27.40;52.00;;;;;;6196216;28;20423;-89
2021/06/19 05:44:41;;;;;;;22.05;4.18;;;27.40;52.00;;;;;;6183335;28;20029;-90
2021/06/19 05:47:42;;;;;;;11.90;4.55;;;27.40;52.10;;;;;;6196461;28;20061;-90
2021/06/19 05:50:43;;;;;;;10.07;4.88;;;27.40;52.20;;;;;;6204917;28;20041;-90
2021/06/19 05:53:45;;;;;;;13.45;4.00;;;27.30;52.30;;;;;;6194853;28;20034;-89
2021/06/19 05:56:46;;;;;;;18.13;4.95;;;27.30;52.40;;;;;;6237940;28;20059;-89
2021/06/19 06:00:03;;;;;;;13.38;4.25;;;27.30;52.50;;;;;;6247766;28;20040;-90
2021/06/19 06:03:13;;;;;;;17.13;4.78;;;27.20;52.50;;;;;;6235268;28;20038;-90
2021/06/19 06:06:15;;;;;;;16.52;4.90;;;27.20;52.50;;;;;;6232306;28;20058;-89
2021/06/19 06:09:18;;;;;;;13.43;4.90;;;27.20;52.50;;;;;;6236488;28;20436;-89
2021/06/19 06:12:19;;;;;;;11.73;4.82;;;27.20;52.60;;;;;;6233022;28;20358;-90
2021/06/19 06:15:21;;;;;;;13.35;4.38;;;27.20;52.60;;;;;;6201573;28;20140;-90
2021/06/19 06:18:23;;;;;;;11.32;4.75;;;27.20;52.70;;;;;;6207874;28;20039;-90
2021/06/19 06:21:27;;;;;;;9.00;4.45;;;27.20;52.70;;;;;;6208468;28;20025;-91
2021/06/19 06:24:41;;;;;;;11.68;4.72;;;27.30;52.70;;;;;;6236679;28;20039;-90
2021/06/19 06:27:46;;;;;;;18.17;4.97;;;27.40;52.80;;;;;;6213007;28;20045;-90
2021/06/19 06:31:15;;;;;;;18.30;5.97;;;27.40;52.50;;;;;;6229317;28;20071;-90
2021/06/19 06:34:52;;;;;;;14.68;4.30;;;27.50;52.50;;;;;;6216008;28;20044;-88
2021/06/19 06:37:56;;;;;;;17.05;4.88;;;27.60;52.40;;;;;;6113089;28;20035;-89
2021/06/19 06:41:02;;;;;;;11.82;4.65;;;27.70;52.10;;;;;;6170703;28;20034;-89
2021/06/19 06:44:12;;;;;;;26.02;4.85;;;27.80;52.00;;;;;;6153935;28;20138;-90
2021/06/19 06:47:14;;;;;;;9.75;4.55;;;27.70;52.00;;;;;;6173582;28;20058;-90
2021/06/19 06:50:28;;;;;;;12.52;5.00;;;27.70;52.10;;;;;;6149488;28;20042;-91
2021/06/19 06:53:39;;;;;;;9.48;4.72;;;27.60;52.10;;;;;;6135767;28;20035;-90
2021/06/19 06:56:44;;;;;;;18.52;5.10;;;27.70;52.20;;;;;;6176869;28;20039;-92
2021/06/19 06:59:46;;;;;;;21.05;4.63;;;27.70;52.10;;;;;;6165469;28;20029;-90
2021/06/19 07:02:51;;;;;;;9.52;4.55;;;27.70;52.10;;;;;;6172577;28;20559;-91
2021/06/19 07:05:58;;;;;;;11.85;4.75;;;27.80;52.10;;;;;;6155047;28;20069;-91
2021/06/19 07:09:21;;;;;;;15.52;5.07;;;27.80;52.00;;;;;;6130847;28;20031;-92
2021/06/19 07:12:35;;;;;;;8.57;4.13;;;27.90;52.00;;;;;;6154570;28;20173;-91
2021/06/19 07:15:37;;;;;;;9.05;4.47;;;28.30;52.50;;;;;;6125210;28;20117;-92
2021/06/19 07:18:40;;;;;;;8.48;3.90;;;28.30;51.30;;;;;;6166824;28;20037;-92
2021/06/19 07:21:42;;;;;;;11.80;4.65;;;28.50;51.00;;;;;;6170532;28;20050;-87
2021/06/19 07:24:47;;;;;;;12.55;4.13;;;28.60;50.90;;;;;;6163860;28;20046;-86
2021/06/19 07:27:53;;;;;;;19.90;5.32;;;28.60;50.80;;;;;;6164408;28;20046;-87
2021/06/19 07:31:01;;;;;;;13.55;5.47;;;28.60;50.70;;;;;;6197914;28;20046;-87
2021/06/19 07:34:04;;;;;;;13.63;4.63;;;28.70;50.80;;;;;;6193987;28;20033;-86
2021/06/19 07:37:08;;;;;;;12.73;5.28;;;28.70;50.60;;;;;;6247940;28;20167;-89
2021/06/19 07:40:10;;;;;;;11.82;4.40;;;28.80;50.60;;;;;;6215113;28;20036;-90
2021/06/19 07:43:18;;;;;;;15.30;4.38;;;28.90;50.40;;;;;;6244390;28;20033;-89
2021/06/19 07:46:22;;;;;;;11.23;4.55;;;28.90;50.10;;;;;;6240757;28;20038;-90
2021/06/19 07:49:25;;;;;;;12.63;4.93;;;29.00;50.00;;;;;;6221999;28;20041;-90
2021/06/19 07:52:31;;;;;;;21.20;5.43;;;29.10;49.80;;;;;;6227466;28;20347;-89
2021/06/19 07:55:37;;;;;;;14.65;5.20;;;29.20;49.60;;;;;;6241980;28;20077;-88
2021/06/19 07:58:44;;;;;;;11.25;4.88;;;29.20;49.40;;;;;;6251190;28;20354;-89
2021/06/19 08:01:46;;;;;;;13.38;4.70;;;29.20;49.40;;;;;;6237281;28;20080;-89
2021/06/19 08:04:52;;;;;;;11.32;4.65;;;29.30;49.30;;;;;;6245861;28;20030;-90
2021/06/19 08:08:05;;;;;;;15.05;5.15;;;29.30;49.20;;;;;;6237659;28;20033;-89
2021/06/19 08:11:12;;;;;;;12.18;4.38;;;29.40;49.10;;;;;;6201373;28;20056;-89
2021/06/19 08:14:18;;;;;;;11.63;4.30;;;29.60;48.80;;;;;;6221831;28;20034;-89
2021/06/19 08:17:24;;;;;;;14.40;4.65;;;29.80;48.40;;;;;;6240373;28;20276;-89
2021/06/19 08:20:25;;;;;;;16.75;4.78;;;29.80;48.80;;;;;;6232760;28;20129;-90
2021/06/19 08:23:28;;;;;;;20.63;5.35;;;30.00;48.00;;;;;;6193462;28;20042;-89
2021/06/19 08:26:29;;;;;;;12.95;4.90;;;30.00;47.90;;;;;;6226970;28;20045;-89
2021/06/19 08:29:36;;;;;;;17.23;5.05;;;30.10;47.50;;;;;;6214648;28;20144;-88
2021/06/19 08:32:53;;;;;;;12.82;5.63;;;30.20;47.40;;;;;;6170489;28;20390;-88
2021/06/19 08:35:56;;;;;;;14.25;4.63;;;30.30;47.10;;;;;;6213581;28;20102;-89
2021/06/19 08:38:58;;;;;;;10.90;5.35;;;30.40;47.00;;;;;;6197662;28;20040;-90
2021/06/19 08:42:00;;;;;;;13.75;5.00;;;30.60;46.80;;;;;;6209943;28;20048;-89
2021/06/19 08:45:05;;;;;;;14.00;4.82;;;30.70;46.40;;;;;;6220201;28;20037;-91
2021/06/19 08:48:06;;;;;;;12.27;5.57;;;30.80;46.10;;;;;;6195212;28;20041;-90
2021/06/19 08:51:08;;;;;;;16.42;5.22;;;31.00;45.90;;;;;;6217327;28;20106;-88
2021/06/19 08:54:09;;;;;;;17.33;5.40;;;31.10;45.60;;;;;;6225417;28;20045;-88
2021/06/19 08:57:18;;;;;;;13.27;5.35;;;31.20;45.40;;;;;;6243739;28;20044;-90
2021/06/19 09:00:21;;;;;;;11.50;4.90;;;31.30;45.30;;;;;;6176577;28;20141;-90
2021/06/19 09:03:30;;;;;;;11.50;4.85;;;31.20;45.10;;;;;;6209163;28;20026;-87
2021/06/19 09:06:38;;;;;;;10.10;5.40;;;31.30;45.10;;;;;;6103984;28;20053;-83
2021/06/19 09:09:39;;;;;;;17.13;5.65;;;31.30;44.90;;;;;;6144918;28;20126;-78
2021/06/19 09:12:40;;;;;;;11.27;5.13;;;31.40;44.80;;;;;;6151853;28;20130;-77
2021/06/19 09:15:57;;;;;;;20.05;5.97;;;31.40;44.90;;;;;;6135979;28;20039;-77
2021/06/19 09:18:58;;;;;;;21.73;5.60;;;31.40;45.00;;;;;;6145568;28;20133;-78
2021/06/19 09:22:16;;;;;;;14.55;5.15;;;31.40;45.10;;;;;;6147743;28;20499;-77
2021/06/19 09:25:17;;;;;;;16.02;5.90;;;31.40;45.30;;;;;;6138218;28;20031;-78
2021/06/19 09:28:19;;;;;;;13.45;4.90;;;31.40;45.20;;;;;;6137168;28;20404;-79
2021/06/19 09:31:35;;;;;;;13.20;4.97;;;31.30;45.20;;;;;;6149480;28;20138;-78
2021/06/19 09:34:40;;;;;;;10.35;5.40;;;31.30;45.40;;;;;;6160616;28;20045;-79
2021/06/19 09:37:43;;;;;;;10.75;5.47;;;31.40;45.30;;;;;;6215714;28;20500;-79
2021/06/19 09:40:46;;;;;;;14.88;6.38;;;31.40;45.30;;;;;;6239030;28;20055;-80
2021/06/19 09:43:50;;;;;;;18.80;5.50;;;31.40;45.20;;;;;;6245008;28;20030;-78
2021/06/19 09:47:00;;;;;;;15.70;5.20;;;31.40;45.10;;;;;;6241922;28;20048;-79
2021/06/19 09:50:05;;;;;;;14.77;5.30;;;31.40;45.00;;;;;;6222565;28;20525;-79
2021/06/19 09:53:13;;;;;;;18.20;5.57;;;31.50;44.80;;;;;;6242679;28;20052;-82
2021/06/19 09:56:17;;;;;;;15.10;5.03;;;31.60;44.40;;;;;;6238319;28;20358;-81
2021/06/19 09:59:33;;;;;;;10.85;3.85;;;31.70;44.00;;;;;;6231076;28;20161;-82
2021/06/19 10:02:35;;;;;;;9.30;4.40;;;31.70;42.90;;;;;;6217720;28;20034;-82
2021/06/19 10:05:44;;;;;;;11.82;4.60;;;31.80;42.80;;;;;;6241125;28;20082;-82
2021/06/19 10:08:55;;;;;;;14.77;4.95;;;31.90;42.60;;;;;;6221427;28;20044;-89
2021/06/19 10:12:01;;;;;;;10.60;4.65;;;31.90;42.40;;;;;;6210353;28;20038;-86
2021/06/19 10:15:08;;;;;;;20.98;5.15;;;31.90;42.30;;;;;;6227900;28;20056;-81
2021/06/19 10:18:10;;;;;;;12.32;4.63;;;32.00;42.30;;;;;;6241681;28;20037;-82
2021/06/19 10:21:13;;;;;;;9.15;4.15;;;32.10;42.10;;;;;;6231883;28;20422;-83
2021/06/19 10:24:14;;;;;;;20.20;4.47;;;32.10;41.70;;;;;;6238667;28;20033;-85
2021/06/19 10:27:17;;;;;;;13.18;4.85;;;32.20;41.70;;;;;;6252758;28;20098;-84
2021/06/19 10:30:24;;;;;;;10.38;4.57;;;32.20;41.60;;;;;;6247912;28;20033;-84
2021/06/19 10:33:36;;;;;;;12.77;4.45;;;32.30;41.50;;;;;;6229056;28;20120;-87
2021/06/19 10:36:38;;;;;;;13.25;5.00;;;32.40;41.40;;;;;;6248349;28;20095;-84
2021/06/19 10:39:42;;;;;;;11.45;5.05;;;32.40;41.10;;;;;;6230503;28;20450;-87
2021/06/19 10:42:44;;;;;;;9.15;4.90;;;32.40;40.60;;;;;;6248944;28;20033;-84
2021/06/19 10:45:49;;;;;;;13.05;4.97;;;32.40;40.60;;;;;;6216205;28;20059;-85
2021/06/19 10:48:52;;;;;;;8.05;4.30;;;32.40;40.80;;;;;;6228662;28;20026;-84
2021/06/19 10:52:26;;;;;;;14.25;4.10;;;32.40;40.90;;;;;;6218875;28;20061;-85
2021/06/19 10:55:34;;;;;;;16.05;4.75;;;32.50;40.90;;;;;;6220794;28;20054;-84
2021/06/19 10:58:35;;;;;;;;;;;32.60;40.70;;;;;;6253577;28;20040;-80
2021/06/19 11:01:42;;;;;;;9.82;4.90;;;32.60;40.70;;;;;;6257738;28;19920;-84
2021/06/19 11:04:44;;;;;;;12.80;4.60;;;32.70;40.60;;;;;;6241562;28;20100;-82
2021/06/19 11:07:45;;;;;;;10.23;4.63;;;32.80;40.00;;;;;;6197160;28;20045;-83
2021/06/19 11:13:48;;;;;;;9.07;3.97;;;34.00;38.10;;;;;;6235633;28;20025;-83
2021/06/19 11:16:50;;;;;;;9.25;4.10;;;34.50;37.30;;;;;;6228206;28;20045;-81
2021/06/19 11:20:06;;;;;;;9.60;4.72;;;35.10;36.50;;;;;;6229632;28;20044;-81
2021/06/19 11:23:09;;;;;;;15.98;4.35;;;35.80;35.40;;;;;;6224612;28;20415;-81
2021/06/19 11:26:59;;;;;;;11.00;4.38;;;36.30;34.60;;;;;;6227114;28;20133;-82
2021/06/19 11:30:02;;;;;;;;;;;36.80;33.90;;;;;;6265144;28;20110;-81
2021/06/19 11:33:25;;;;;;;10.85;3.83;;;37.20;33.30;;;;;;6235174;28;20044;-80
2021/06/19 11:36:27;;;;;;;16.85;4.32;;;37.50;32.80;;;;;;6227842;28;20053;-81
2021/06/19 11:39:36;;;;;;;10.13;4.75;;;37.60;32.60;;;;;;6244756;28;20456;-81
2021/06/19 11:42:44;;;;;;;16.30;4.40;;;37.80;32.30;;;;;;6220453;28;20037;-81
2021/06/19 11:45:45;;;;;;;15.57;4.97;;;38.10;31.80;;;;;;6223219;28;20087;-81
2021/06/19 11:48:55;;;;;;;9.52;3.90;;;38.30;31.40;;;;;;6221894;28;20454;-81
2021/06/19 11:51:58;;;;;;;16.27;4.60;;;38.30;31.10;;;;;;6247732;28;20053;-80
2021/06/19 11:55:00;;;;;;;11.00;4.20;;;38.20;31.00;;;;;;6238171;28;20140;-80
2021/06/19 11:58:01;;;;;;;10.48;4.22;;;38.20;31.10;;;;;;6222550;28;20040;-82
2021/06/19 12:01:02;;;;;;;13.40;4.70;;;38.30;31.10;;;;;;6248132;28;20355;-81
2021/06/19 12:04:15;;;;;;;12.55;4.43;;;38.30;31.00;;;;;;6220311;28;20038;-84
2021/06/19 12:07:25;;;;;;;17.77;4.38;;;38.30;30.90;;;;;;6215539;28;20041;-81
2021/06/19 12:10:30;;;;;;;11.07;3.90;;;38.50;30.70;;;;;;6236741;28;20060;-82
2021/06/19 12:13:40;;;;;;;13.55;4.22;;;38.60;30.60;;;;;;6232386;28;20103;-81
2021/06/19 12:16:45;;;;;;;7.82;4.20;;;38.80;30.30;;;;;;6222208;28;20095;-82
2021/06/19 12:19:46;;;;;;;11.00;4.28;;;38.80;30.00;;;;;;6247538;28;20032;-82
2021/06/19 12:22:47;;;;;;;8.98;3.80;;;38.90;30.10;;;;;;6246545;28;20029;-83
2021/06/19 12:25:48;;;;;;;8.50;4.18;;;39.00;30.00;;;;;;6219289;28;20029;-82
2021/06/19 12:28:50;;;;;;;11.80;4.07;;;39.30;29.90;;;;;;6229952;28;20099;-82
2021/06/19 12:31:52;;;;;;;12.10;4.38;;;39.50;29.60;;;;;;6247115;28;20051;-81
2021/06/19 12:35:02;;;;;;;11.15;3.95;;;39.40;29.70;;;;;;6235623;28;20112;-82
2021/06/19 12:38:06;;;;;;;10.05;3.70;;;39.30;29.70;;;;;;6232728;28;20108;-81
2021/06/19 12:41:07;;;;;;;15.52;4.30;;;39.10;30.00;;;;;;6236413;28;20346;-82
2021/06/19 12:44:09;;;;;;;14.65;3.67;;;39.10;29.50;;;;;;6222776;28;20040;-83
2021/06/19 12:47:18;;;;;;;17.15;4.90;;;39.10;29.40;;;;;;6230219;28;20110;-81
2021/06/19 12:50:33;;;;;;;11.73;3.78;;;39.00;29.50;;;;;;6229862;28;20045;-81
2021/06/19 12:53:36;;;;;;;17.88;4.75;;;38.90;29.70;;;;;;6229360;28;20049;-82
2021/06/19 12:56:55;;;;;;;15.50;4.25;;;38.80;29.80;;;;;;6222376;28;20109;-83
2021/06/19 12:59:56;;;;;;;10.98;4.10;;;38.70;29.90;;;;;;6213617;28;20033;-83
2021/06/19 13:02:57;;;;;;;11.73;4.65;;;38.80;29.80;;;;;;6207144;28;20040;-80
2021/06/19 13:06:01;;;;;;;11.10;3.88;;;38.80;29.70;;;;;;6220753;28;20475;-80
2021/06/19 13:09:05;;;;;;;9.45;3.67;;;38.80;29.80;;;;;;6236493;28;20046;-79
2021/06/19 13:12:07;;;;;;;12.25;3.83;;;38.70;29.80;;;;;;6222836;28;20053;-80
2021/06/19 13:15:14;;;;;;;15.90;4.55;;;38.70;29.90;;;;;;6219434;28;20034;-79
2021/06/19 13:18:16;;;;;;;11.80;3.70;;;38.70;29.90;;;;;;6220040;28;20037;-78
2021/06/19 13:21:17;;;;;;;15.23;4.15;;;39.00;29.70;;;;;;6220682;28;20045;-79
2021/06/19 13:24:33;;;;;;;15.40;4.78;;;39.20;29.40;;;;;;6231906;28;20033;-87
2021/06/19 13:27:34;;;;;;;11.35;4.32;;;39.20;29.40;;;;;;6233392;28;20032;-83
2021/06/19 13:30:38;;;;;;;14.18;4.78;;;38.80;29.70;;;;;;6235631;28;20093;-82
2021/06/19 13:33:50;;;;;;;15.48;3.65;;;38.00;30.40;;;;;;6196513;28;20447;-85
2021/06/19 13:36:59;;;;;;;13.20;4.28;;;37.30;31.60;;;;;;6216379;28;20030;-85
2021/06/19 13:40:07;;;;;;;9.48;4.35;;;36.70;32.60;;;;;;6251224;28;20048;-90
2021/06/19 13:43:10;;;;;;;10.85;4.13;;;36.10;33.60;;;;;;6231689;28;20046;-87
2021/06/19 13:46:12;;;;;;;15.43;4.72;;;35.70;34.20;;;;;;6209878;28;20041;-91
2021/06/19 13:49:15;;;;;;;12.55;4.03;;;35.50;34.90;;;;;;6229465;28;20060;-89
2021/06/19 13:52:17;;;;;;;10.32;4.18;;;35.60;34.90;;;;;;6211730;28;20022;-89
2021/06/19 13:55:18;;;;;;;9.23;3.95;;;36.50;33.70;;;;;;6224322;28;20022;-90
2021/06/19 13:58:20;;;;;;;12.65;4.57;;;37.60;32.10;;;;;;6216323;28;20032;-88
2021/06/19 14:01:21;;;;;;;17.02;3.80;;;38.70;30.60;;;;;;6233769;28;20038;-93
2021/06/19 14:04:42;;;;;;;15.50;4.05;;;39.60;29.50;;;;;;6208945;28;20040;-88
2021/06/19 14:08:15;;;;;;;10.95;3.85;;;40.00;29.10;;;;;;6173288;28;20473;-90
2021/06/19 14:11:42;;;;;;;16.45;4.03;;;40.80;28.40;;;;;;5934197;29;20122;-87
2021/06/19 14:15:50;;;;;;;11.80;4.22;;;41.10;27.80;;;;;;6013899;29;20041;-92
2021/06/19 14:19:13;;;;;;;;;;;;;;;;;;;;;
2021/06/19 14:22:28;;;;;;;11.48;3.75;;;39.60;29.20;;;;;;5977874;29;20518;-89
2021/06/19 14:25:37;;;;;;;16.88;3.90;;;39.10;29.90;;;;;;6004613;29;20037;-89
2021/06/19 14:28:40;;;;;;;13.25;3.67;;;38.90;30.00;;;;;;6060123;29;20039;-89
2021/06/19 14:31:42;;;;;;;11.70;3.53;;;39.20;29.70;;;;;;6132087;29;20063;-87
2021/06/19 14:34:43;;;;;;;7.57;3.22;;;39.80;29.20;;;;;;6129646;29;20345;-88
2021/06/19 14:37:48;;;;;;;14.68;4.13;;;40.40;28.70;;;;;;6112118;29;20039;-90
2021/06/19 14:40:50;;;;;;;15.15;3.90;;;40.80;28.30;;;;;;6112010;29;20036;-87
2021/06/19 14:43:51;;;;;;;14.27;3.47;;;41.00;28.10;;;;;;6126396;29;20385;-90
2021/06/19 14:46:55;;;;;;;21.27;4.00;;;41.20;27.80;;;;;;6140268;28;20083;-88
2021/06/19 14:53:48;;;;;;;;;;;;;;;;;;;;;
2021/06/19 14:57:08;;;;;;;16.95;3.80;;;41.10;27.70;;;;;;6030271;28;20042;-91
2021/06/19 15:00:30;;;;;;;17.00;4.28;;;41.20;27.70;;;;;;6051579;28;21926;-88
2021/06/19 15:03:47;;;;;;;14.95;3.70;;;41.10;27.80;;;;;;6127099;28;20030;-87
2021/06/19 15:06:51;;;;;;;22.05;3.70;;;40.80;28.10;;;;;;6174102;28;20034;-87
2021/06/19 15:09:58;;;;;;;12.43;3.05;;;40.30;28.40;;;;;;6146753;28;20329;-91
2021/06/19 15:13:03;;;;;;;18.35;3.70;;;39.70;29.10;;;;;;6160643;28;20472;-89
2021/06/19 15:16:10;;;;;;;11.93;3.95;;;39.40;29.60;;;;;;6174308;28;20049;-89
2021/06/19 15:19:17;;;;;;;;;;;39.50;29.50;;;;;;6149437;28;20045;-89
2021/06/19 15:22:25;;;;;;;15.63;3.75;;;40.10;29.20;;;;;;6168898;28;19910;-90
2021/06/19 15:25:27;;;;;;;16.13;4.07;;;40.60;28.70;;;;;;6152098;28;20034;-88
2021/06/19 15:28:29;;;;;;;15.07;4.72;;;40.50;28.50;;;;;;6177300;28;20035;-88
2021/06/19 15:31:35;;;;;;;11.77;3.20;;;40.20;28.90;;;;;;6186609;28;20114;-87
2021/06/19 15:34:43;;;;;;;16.60;4.63;;;40.30;28.90;;;;;;6217267;28;20045;-91
2021/06/19 15:37:53;;;;;;;15.48;3.67;;;40.70;28.60;;;;;;6125328;28;20038;-94
2021/06/19 15:41:05;;;;;;;14.25;4.00;;;41.20;28.20;;;;;;6168088;28;20457;-88
2021/06/19 15:44:13;;;;;;;14.38;3.42;;;41.50;28.00;;;;;;6209592;28;20033;-89
2021/06/19 15:47:15;;;;;;;13.07;4.10;;;41.30;27.80;;;;;;6245702;28;20055;-88
2021/06/19 15:50:17;;;;;;;15.10;3.50;;;41.10;28.00;;;;;;6219861;28;20062;-87
2021/06/19 15:53:19;;;;;;;8.77;3.20;;;40.50;28.60;;;;;;6231368;28;20094;-88
2021/06/19 15:56:20;;;;;;;15.07;3.70;;;40.50;28.70;;;;;;6234214;28;20024;-92
2021/06/19 15:59:21;;;;;;;18.88;4.32;;;40.40;28.80;;;;;;6222156;28;20120;-90
2021/06/19 16:02:25;;;;;;;15.98;4.40;;;40.20;28.80;;;;;;6219083;28;20045;-89
2021/06/19 16:05:28;;;;;;;18.23;3.97;;;40.10;28.90;;;;;;6209806;28;20272;-88
2021/06/19 16:08:31;;;;;;;13.90;4.18;;;40.20;29.10;;;;;;6214261;28;20029;-84
2021/06/19 16:11:33;;;;;;;14.85;3.72;;;40.00;29.20;;;;;;6221576;28;20033;-85
2021/06/19 16:14:34;;;;;;;16.33;4.45;;;39.40;29.80;;;;;;6241522;28;20076;-86
2021/06/19 16:17:37;;;;;;;12.68;3.90;;;38.90;30.50;;;;;;6232932;28;20446;-86
2021/06/19 16:20:38;;;;;;;11.40;4.30;;;38.70;31.10;;;;;;6215172;28;20029;-86